sensor_id;sensor_type;location;lat;lon;timestamp;temperature;humidity
19847;DHT22;10084;50.518;8.588;2022-12-18T00:01:27;-5.60;78.60
19847;DHT22;10084;50.518;8.588;2022-12-18T00:03:55;-5.60;78.60
19847;DHT22;10084;50.518;8.588;2022-12-18T00:06:22;-5.60;78.80
19847;DHT22;10084;50.518;8.588;2022-12-18T00:08:48;-5.60;78.90
19847;DHT22;10084;50.518;8.588;2022-12-18T00:11:16;-5.50;79.60
19847;DHT22;10084;50.518;8.588;2022-12-18T00:13:42;-5.60;78.80
19847;DHT22;10084;50.518;8.588;2022-12-18T00:16:15;-5.50;78.80
19847;DHT22;10084;50.518;8.588;2022-12-18T00:18:42;-5.50;78.80
19847;DHT22;10084;50.518;8.588;2022-12-18T00:21:09;-5.50;78.80
19847;DHT22;10084;50.518;8.588;2022-12-18T00:23:37;-5.50;78.90
19847;DHT22;10084;50.518;8.588;2022-12-18T00:26:06;-5.50;78.90
19847;DHT22;10084;50.518;8.588;2022-12-18T00:28:33;-5.50;79.10
19847;DHT22;10084;50.518;8.588;2022-12-18T00:31:10;-5.50;79.00
19847;DHT22;10084;50.518;8.588;2022-12-18T00:33:36;-5.40;79.10
19847;DHT22;10084;50.518;8.588;2022-12-18T00:36:09;-5.40;78.90
19847;DHT22;10084;50.518;8.588;2022-12-18T00:38:35;-5.40;78.80
19847;DHT22;10084;50.518;8.588;2022-12-18T00:41:02;-5.40;78.70
19847;DHT22;10084;50.518;8.588;2022-12-18T00:43:28;-5.50;78.80
19847;DHT22;10084;50.518;8.588;2022-12-18T00:45:53;-5.40;79.00
19847;DHT22;10084;50.518;8.588;2022-12-18T00:48:20;-5.40;78.90
19847;DHT22;10084;50.518;8.588;2022-12-18T00:50:47;-5.40;79.00
19847;DHT22;10084;50.518;8.588;2022-12-18T00:53:13;-5.40;79.00
19847;DHT22;10084;50.518;8.588;2022-12-18T00:55:39;-5.30;79.10
19847;DHT22;10084;50.518;8.588;2022-12-18T00:58:05;-5.30;79.10
19847;DHT22;10084;50.518;8.588;2022-12-18T01:00:31;-5.30;79.00
19847;DHT22;10084;50.518;8.588;2022-12-18T01:02:57;-5.30;79.00
19847;DHT22;10084;50.518;8.588;2022-12-18T01:05:24;-5.30;79.10
19847;DHT22;10084;50.518;8.588;2022-12-18T01:07:50;-5.20;79.20
19847;DHT22;10084;50.518;8.588;2022-12-18T01:10:16;-5.20;79.30
19847;DHT22;10084;50.518;8.588;2022-12-18T01:12:42;-5.10;79.40
19847;DHT22;10084;50.518;8.588;2022-12-18T01:15:09;-5.00;79.50
19847;DHT22;10084;50.518;8.588;2022-12-18T01:17:36;-4.90;79.50
19847;DHT22;10084;50.518;8.588;2022-12-18T01:20:02;-4.90;79.30
19847;DHT22;10084;50.518;8.588;2022-12-18T01:22:28;-4.90;79.10
19847;DHT22;10084;50.518;8.588;2022-12-18T01:24:54;-4.90;79.50
19847;DHT22;10084;50.518;8.588;2022-12-18T01:27:22;-4.90;78.80
19847;DHT22;10084;50.518;8.588;2022-12-18T01:29:48;-4.90;78.70
19847;DHT22;10084;50.518;8.588;2022-12-18T01:32:14;-5.00;78.40
19847;DHT22;10084;50.518;8.588;2022-12-18T01:34:40;-5.10;78.20
19847;DHT22;10084;50.518;8.588;2022-12-18T01:37:06;-5.10;78.40
19847;DHT22;10084;50.518;8.588;2022-12-18T01:39:32;-5.20;78.60
19847;DHT22;10084;50.518;8.588;2022-12-18T01:41:59;-5.20;78.80
19847;DHT22;10084;50.518;8.588;2022-12-18T01:44:52;-5.20;78.80
19847;DHT22;10084;50.518;8.588;2022-12-18T01:47:33;-5.20;78.80
19847;DHT22;10084;50.518;8.588;2022-12-18T01:50:03;-5.20;79.00
19847;DHT22;10084;50.518;8.588;2022-12-18T01:52:32;-5.20;79.00
19847;DHT22;10084;50.518;8.588;2022-12-18T01:55:00;-5.20;79.00
19847;DHT22;10084;50.518;8.588;2022-12-18T01:57:27;-5.20;79.20
19847;DHT22;10084;50.518;8.588;2022-12-18T01:59:57;-5.10;79.30
19847;DHT22;10084;50.518;8.588;2022-12-18T02:02:28;-5.00;79.40
19847;DHT22;10084;50.518;8.588;2022-12-18T02:04:55;-5.00;79.40
19847;DHT22;10084;50.518;8.588;2022-12-18T02:07:52;-5.00;79.30
19847;DHT22;10084;50.518;8.588;2022-12-18T02:10:30;-5.00;79.10
19847;DHT22;10084;50.518;8.588;2022-12-18T02:13:30;-5.00;78.80
19847;DHT22;10084;50.518;8.588;2022-12-18T02:18:47;-5.00;78.90
19847;DHT22;10084;50.518;8.588;2022-12-18T02:22:27;-5.00;79.10
19847;DHT22;10084;50.518;8.588;2022-12-18T02:27:42;-5.00;79.00
19847;DHT22;10084;50.518;8.588;2022-12-18T02:30:10;-5.00;78.90
19847;DHT22;10084;50.518;8.588;2022-12-18T02:32:43;-5.00;78.90
19847;DHT22;10084;50.518;8.588;2022-12-18T02:35:14;-5.00;78.90
19847;DHT22;10084;50.518;8.588;2022-12-18T02:37:43;-4.90;78.90
19847;DHT22;10084;50.518;8.588;2022-12-18T02:40:12;-4.90;78.90
19847;DHT22;10084;50.518;8.588;2022-12-18T02:42:39;-4.90;78.80
19847;DHT22;10084;50.518;8.588;2022-12-18T02:45:07;-4.90;78.70
19847;DHT22;10084;50.518;8.588;2022-12-18T02:47:38;-4.90;78.70
19847;DHT22;10084;50.518;8.588;2022-12-18T02:53:28;-5.00;78.60
19847;DHT22;10084;50.518;8.588;2022-12-18T02:56:10;-5.00;78.50
19847;DHT22;10084;50.518;8.588;2022-12-18T03:01:25;-5.10;78.50
19847;DHT22;10084;50.518;8.588;2022-12-18T03:08:52;-5.10;78.70
19847;DHT22;10084;50.518;8.588;2022-12-18T03:11:25;-5.10;78.70
19847;DHT22;10084;50.518;8.588;2022-12-18T03:14:13;-5.10;78.70
19847;DHT22;10084;50.518;8.588;2022-12-18T03:16:42;-5.10;78.70
19847;DHT22;10084;50.518;8.588;2022-12-18T03:19:19;-5.10;78.60
19847;DHT22;10084;50.518;8.588;2022-12-18T03:21:54;-5.20;78.50
19847;DHT22;10084;50.518;8.588;2022-12-18T03:24:22;-5.20;78.50
19847;DHT22;10084;50.518;8.588;2022-12-18T03:26:57;-5.20;78.60
19847;DHT22;10084;50.518;8.588;2022-12-18T03:29:48;-5.20;78.50
19847;DHT22;10084;50.518;8.588;2022-12-18T03:32:25;-5.30;78.40
19847;DHT22;10084;50.518;8.588;2022-12-18T03:34:55;-5.30;78.40
19847;DHT22;10084;50.518;8.588;2022-12-18T03:37:22;-5.40;78.90
19847;DHT22;10084;50.518;8.588;2022-12-18T03:39:48;-5.40;78.20
19847;DHT22;10084;50.518;8.588;2022-12-18T03:42:25;-5.50;78.10
19847;DHT22;10084;50.518;8.588;2022-12-18T03:50:46;-5.70;78.10
19847;DHT22;10084;50.518;8.588;2022-12-18T03:53:35;-5.70;78.40
19847;DHT22;10084;50.518;8.588;2022-12-18T03:56:04;-5.80;78.50
19847;DHT22;10084;50.518;8.588;2022-12-18T03:58:36;-5.80;78.60
19847;DHT22;10084;50.518;8.588;2022-12-18T04:01:15;-5.70;78.70
19847;DHT22;10084;50.518;8.588;2022-12-18T04:03:43;-5.70;78.70
19847;DHT22;10084;50.518;8.588;2022-12-18T04:06:11;-5.80;78.60
19847;DHT22;10084;50.518;8.588;2022-12-18T04:08:40;-5.80;78.60
19847;DHT22;10084;50.518;8.588;2022-12-18T04:11:08;-5.80;78.60
19847;DHT22;10084;50.518;8.588;2022-12-18T04:13:36;-5.70;78.70
19847;DHT22;10084;50.518;8.588;2022-12-18T04:16:05;-5.70;78.70
19847;DHT22;10084;50.518;8.588;2022-12-18T04:18:31;-5.70;78.60
19847;DHT22;10084;50.518;8.588;2022-12-18T04:20:59;-5.80;78.30
19847;DHT22;10084;50.518;8.588;2022-12-18T04:23:24;-5.80;78.30
19847;DHT22;10084;50.518;8.588;2022-12-18T04:25:52;-5.90;78.30
19847;DHT22;10084;50.518;8.588;2022-12-18T04:28:30;-5.90;78.30
19847;DHT22;10084;50.518;8.588;2022-12-18T04:30:58;-6.00;78.20
19847;DHT22;10084;50.518;8.588;2022-12-18T04:33:24;-6.00;78.20
19847;DHT22;10084;50.518;8.588;2022-12-18T04:35:50;-6.00;78.40
19847;DHT22;10084;50.518;8.588;2022-12-18T04:38:16;-6.00;78.50
19847;DHT22;10084;50.518;8.588;2022-12-18T04:40:43;-6.00;78.50
19847;DHT22;10084;50.518;8.588;2022-12-18T04:43:17;-6.00;78.50
19847;DHT22;10084;50.518;8.588;2022-12-18T04:45:42;-6.00;78.50
19847;DHT22;10084;50.518;8.588;2022-12-18T04:48:08;-5.90;78.50
19847;DHT22;10084;50.518;8.588;2022-12-18T04:50:34;-5.90;78.50
19847;DHT22;10084;50.518;8.588;2022-12-18T04:53:00;-5.90;78.50
19847;DHT22;10084;50.518;8.588;2022-12-18T04:55:26;-5.90;78.50
19847;DHT22;10084;50.518;8.588;2022-12-18T04:57:52;-5.90;78.40
19847;DHT22;10084;50.518;8.588;2022-12-18T05:00:18;-5.90;78.40
19847;DHT22;10084;50.518;8.588;2022-12-18T05:02:44;-5.90;78.30
19847;DHT22;10084;50.518;8.588;2022-12-18T05:05:10;-6.00;78.30
19847;DHT22;10084;50.518;8.588;2022-12-18T05:07:35;-6.00;78.20
19847;DHT22;10084;50.518;8.588;2022-12-18T05:10:01;-6.10;78.20
19847;DHT22;10084;50.518;8.588;2022-12-18T05:12:27;-6.10;78.30
19847;DHT22;10084;50.518;8.588;2022-12-18T05:14:53;-6.10;78.40
19847;DHT22;10084;50.518;8.588;2022-12-18T05:17:18;-6.10;78.30
19847;DHT22;10084;50.518;8.588;2022-12-18T05:19:44;-6.20;78.20
19847;DHT22;10084;50.518;8.588;2022-12-18T05:22:10;-6.30;78.10
19847;DHT22;10084;50.518;8.588;2022-12-18T05:24:35;-6.30;78.10
19847;DHT22;10084;50.518;8.588;2022-12-18T05:27:01;-6.40;78.30
19847;DHT22;10084;50.518;8.588;2022-12-18T05:29:27;-6.40;78.30
19847;DHT22;10084;50.518;8.588;2022-12-18T05:31:53;-6.40;78.50
19847;DHT22;10084;50.518;8.588;2022-12-18T05:34:19;-6.40;78.70
19847;DHT22;10084;50.518;8.588;2022-12-18T05:36:45;-6.40;78.70
19847;DHT22;10084;50.518;8.588;2022-12-18T05:39:10;-6.40;78.50
19847;DHT22;10084;50.518;8.588;2022-12-18T05:41:36;-6.40;78.40
19847;DHT22;10084;50.518;8.588;2022-12-18T05:44:02;-6.50;78.30
19847;DHT22;10084;50.518;8.588;2022-12-18T05:46:27;-6.60;78.30
19847;DHT22;10084;50.518;8.588;2022-12-18T05:48:53;-6.70;78.20
19847;DHT22;10084;50.518;8.588;2022-12-18T05:51:21;-6.80;78.30
19847;DHT22;10084;50.518;8.588;2022-12-18T05:53:47;-6.90;78.30
19847;DHT22;10084;50.518;8.588;2022-12-18T05:56:19;-7.00;78.40
19847;DHT22;10084;50.518;8.588;2022-12-18T05:58:46;-7.00;78.60
19847;DHT22;10084;50.518;8.588;2022-12-18T06:01:16;-7.10;78.60
19847;DHT22;10084;50.518;8.588;2022-12-18T06:03:43;-7.20;78.60
19847;DHT22;10084;50.518;8.588;2022-12-18T06:06:23;-7.20;78.70
19847;DHT22;10084;50.518;8.588;2022-12-18T06:08:50;-7.20;78.80
19847;DHT22;10084;50.518;8.588;2022-12-18T06:11:18;-7.30;78.80
19847;DHT22;10084;50.518;8.588;2022-12-18T06:13:45;-7.30;78.80
19847;DHT22;10084;50.518;8.588;2022-12-18T06:16:10;-7.30;78.70
19847;DHT22;10084;50.518;8.588;2022-12-18T06:18:39;-7.40;78.70
19847;DHT22;10084;50.518;8.588;2022-12-18T06:21:05;-7.40;78.70
19847;DHT22;10084;50.518;8.588;2022-12-18T06:23:31;-7.50;78.60
19847;DHT22;10084;50.518;8.588;2022-12-18T06:25:57;-7.50;78.70
19847;DHT22;10084;50.518;8.588;2022-12-18T06:28:22;-7.50;78.70
19847;DHT22;10084;50.518;8.588;2022-12-18T06:30:48;-7.60;78.70
19847;DHT22;10084;50.518;8.588;2022-12-18T06:33:15;-7.60;78.70
19847;DHT22;10084;50.518;8.588;2022-12-18T06:35:41;-7.70;78.60
19847;DHT22;10084;50.518;8.588;2022-12-18T06:38:07;-7.70;78.60
19847;DHT22;10084;50.518;8.588;2022-12-18T06:40:33;-7.80;79.10
19847;DHT22;10084;50.518;8.588;2022-12-18T06:42:59;-7.80;78.50
19847;DHT22;10084;50.518;8.588;2022-12-18T06:45:25;-7.90;78.50
19847;DHT22;10084;50.518;8.588;2022-12-18T06:47:50;-7.90;78.60
19847;DHT22;10084;50.518;8.588;2022-12-18T06:50:17;-8.00;78.60
19847;DHT22;10084;50.518;8.588;2022-12-18T06:52:42;-8.00;78.60
19847;DHT22;10084;50.518;8.588;2022-12-18T06:55:10;-8.00;78.60
19847;DHT22;10084;50.518;8.588;2022-12-18T06:57:36;-8.10;78.60
19847;DHT22;10084;50.518;8.588;2022-12-18T07:00:04;-8.10;78.70
19847;DHT22;10084;50.518;8.588;2022-12-18T07:02:30;-8.10;78.70
19847;DHT22;10084;50.518;8.588;2022-12-18T07:04:56;-8.20;78.80
19847;DHT22;10084;50.518;8.588;2022-12-18T07:07:22;-8.20;78.90
19847;DHT22;10084;50.518;8.588;2022-12-18T07:09:50;-8.10;79.00
19847;DHT22;10084;50.518;8.588;2022-12-18T07:12:15;-8.10;79.10
19847;DHT22;10084;50.518;8.588;2022-12-18T07:14:41;-8.10;79.10
19847;DHT22;10084;50.518;8.588;2022-12-18T07:17:07;-8.10;79.10
19847;DHT22;10084;50.518;8.588;2022-12-18T07:19:33;-8.00;79.10
19847;DHT22;10084;50.518;8.588;2022-12-18T07:21:59;-8.00;79.10
19847;DHT22;10084;50.518;8.588;2022-12-18T07:24:24;-8.00;79.10
19847;DHT22;10084;50.518;8.588;2022-12-18T07:26:50;-8.00;79.10
19847;DHT22;10084;50.518;8.588;2022-12-18T07:29:16;-8.00;79.10
19847;DHT22;10084;50.518;8.588;2022-12-18T07:31:42;-8.00;78.90
19847;DHT22;10084;50.518;8.588;2022-12-18T07:34:12;-8.00;78.90
19847;DHT22;10084;50.518;8.588;2022-12-18T07:36:38;-7.90;78.90
19847;DHT22;10084;50.518;8.588;2022-12-18T07:39:04;-7.90;79.10
19847;DHT22;10084;50.518;8.588;2022-12-18T07:41:29;-7.70;79.20
19847;DHT22;10084;50.518;8.588;2022-12-18T07:43:55;-7.60;78.90
19847;DHT22;10084;50.518;8.588;2022-12-18T07:46:21;-7.40;79.00
19847;DHT22;10084;50.518;8.588;2022-12-18T07:48:47;-7.10;79.30
19847;DHT22;10084;50.518;8.588;2022-12-18T07:51:13;-6.80;79.30
19847;DHT22;10084;50.518;8.588;2022-12-18T07:53:39;-6.40;79.20
19847;DHT22;10084;50.518;8.588;2022-12-18T07:56:08;-5.90;79.10
19847;DHT22;10084;50.518;8.588;2022-12-18T07:58:34;-5.40;79.00
19847;DHT22;10084;50.518;8.588;2022-12-18T08:01:11;-4.80;78.60
19847;DHT22;10084;50.518;8.588;2022-12-18T08:03:38;-4.40;77.40
19847;DHT22;10084;50.518;8.588;2022-12-18T08:06:07;-3.90;76.60
19847;DHT22;10084;50.518;8.588;2022-12-18T08:08:33;-3.50;75.90
19847;DHT22;10084;50.518;8.588;2022-12-18T08:10:59;-3.10;75.30
19847;DHT22;10084;50.518;8.588;2022-12-18T08:13:25;-2.60;74.70
19847;DHT22;10084;50.518;8.588;2022-12-18T08:16:06;-2.00;74.00
19847;DHT22;10084;50.518;8.588;2022-12-18T08:18:36;-1.70;73.20
19847;DHT22;10084;50.518;8.588;2022-12-18T08:23:38;-1.70;73.80
19847;DHT22;10084;50.518;8.588;2022-12-18T08:26:04;-1.70;74.30
19847;DHT22;10084;50.518;8.588;2022-12-18T08:28:30;-1.50;74.50
19847;DHT22;10084;50.518;8.588;2022-12-18T08:30:56;-1.10;73.50
19847;DHT22;10084;50.518;8.588;2022-12-18T08:33:21;-0.70;72.70
19847;DHT22;10084;50.518;8.588;2022-12-18T08:35:47;-0.20;71.60
19847;DHT22;10084;50.518;8.588;2022-12-18T08:38:13;0.30;70.90
19847;DHT22;10084;50.518;8.588;2022-12-18T08:40:38;0.80;69.80
19847;DHT22;10084;50.518;8.588;2022-12-18T08:43:04;1.30;68.40
19847;DHT22;10084;50.518;8.588;2022-12-18T08:45:48;1.70;67.60
19847;DHT22;10084;50.518;8.588;2022-12-18T08:48:14;2.10;67.00
19847;DHT22;10084;50.518;8.588;2022-12-18T08:50:40;2.10;67.10
19847;DHT22;10084;50.518;8.588;2022-12-18T08:53:05;2.30;67.60
19847;DHT22;10084;50.518;8.588;2022-12-18T08:55:31;2.50;67.50
19847;DHT22;10084;50.518;8.588;2022-12-18T08:57:57;2.80;67.60
19847;DHT22;10084;50.518;8.588;2022-12-18T09:00:23;3.00;67.40
19847;DHT22;10084;50.518;8.588;2022-12-18T09:02:49;3.30;67.40
19847;DHT22;10084;50.518;8.588;2022-12-18T09:05:14;3.70;67.40
19847;DHT22;10084;50.518;8.588;2022-12-18T09:07:40;4.20;67.10
19847;DHT22;10084;50.518;8.588;2022-12-18T09:10:06;4.60;65.90
19847;DHT22;10084;50.518;8.588;2022-12-18T09:12:32;4.40;64.80
19847;DHT22;10084;50.518;8.588;2022-12-18T09:14:57;3.80;65.10
19847;DHT22;10084;50.518;8.588;2022-12-18T09:17:23;3.20;64.60
19847;DHT22;10084;50.518;8.588;2022-12-18T09:19:49;2.30;64.50
19847;DHT22;10084;50.518;8.588;2022-12-18T09:22:14;1.50;65.90
19847;DHT22;10084;50.518;8.588;2022-12-18T09:24:40;0.80;67.60
19847;DHT22;10084;50.518;8.588;2022-12-18T09:27:06;0.40;68.80
19847;DHT22;10084;50.518;8.588;2022-12-18T09:29:32;0.00;69.70
19847;DHT22;10084;50.518;8.588;2022-12-18T09:31:58;-0.30;70.80
19847;DHT22;10084;50.518;8.588;2022-12-18T09:34:23;-0.60;71.40
19847;DHT22;10084;50.518;8.588;2022-12-18T09:36:50;-0.90;71.90
19847;DHT22;10084;50.518;8.588;2022-12-18T09:39:15;-1.10;72.50
19847;DHT22;10084;50.518;8.588;2022-12-18T09:41:44;-1.30;73.10
19847;DHT22;10084;50.518;8.588;2022-12-18T09:44:56;-1.40;73.50
19847;DHT22;10084;50.518;8.588;2022-12-18T09:49:52;-1.40;74.10
19847;DHT22;10084;50.518;8.588;2022-12-18T09:52:24;-1.20;74.50
19847;DHT22;10084;50.518;8.588;2022-12-18T09:54:58;-0.90;74.20
19847;DHT22;10084;50.518;8.588;2022-12-18T09:57:26;-0.80;73.40
19847;DHT22;10084;50.518;8.588;2022-12-18T10:00:06;-0.80;73.00
19847;DHT22;10084;50.518;8.588;2022-12-18T10:02:37;-0.90;72.70
19847;DHT22;10084;50.518;8.588;2022-12-18T10:05:14;-1.00;72.80
19847;DHT22;10084;50.518;8.588;2022-12-18T10:07:49;-1.00;73.10
19847;DHT22;10084;50.518;8.588;2022-12-18T10:10:27;-0.90;73.50
19847;DHT22;10084;50.518;8.588;2022-12-18T10:13:09;-0.80;73.70
19847;DHT22;10084;50.518;8.588;2022-12-18T10:15:58;-0.50;74.50
19847;DHT22;10084;50.518;8.588;2022-12-18T10:21:25;1.00;73.90
19847;DHT22;10084;50.518;8.588;2022-12-18T10:26:46;1.90;71.50
19847;DHT22;10084;50.518;8.588;2022-12-18T10:29:14;2.10;70.90
19847;DHT22;10084;50.518;8.588;2022-12-18T10:31:40;2.20;70.70
19847;DHT22;10084;50.518;8.588;2022-12-18T10:34:15;2.20;70.90
19847;DHT22;10084;50.518;8.588;2022-12-18T10:36:41;2.30;71.30
19847;DHT22;10084;50.518;8.588;2022-12-18T10:39:22;2.30;71.20
19847;DHT22;10084;50.518;8.588;2022-12-18T10:41:50;2.10;71.20
19847;DHT22;10084;50.518;8.588;2022-12-18T10:44:22;1.90;70.90
19847;DHT22;10084;50.518;8.588;2022-12-18T10:47:02;1.60;70.70
19847;DHT22;10084;50.518;8.588;2022-12-18T10:49:32;1.20;71.10
19847;DHT22;10084;50.518;8.588;2022-12-18T10:52:21;0.90;71.30
19847;DHT22;10084;50.518;8.588;2022-12-18T10:55:01;0.60;71.30
19847;DHT22;10084;50.518;8.588;2022-12-18T10:57:34;0.30;71.40
19847;DHT22;10084;50.518;8.588;2022-12-18T11:02:48;-0.10;71.80
19847;DHT22;10084;50.518;8.588;2022-12-18T11:07:50;-0.50;71.40
19847;DHT22;10084;50.518;8.588;2022-12-18T11:10:20;-0.70;71.50
19847;DHT22;10084;50.518;8.588;2022-12-18T11:12:46;-0.90;71.60
19847;DHT22;10084;50.518;8.588;2022-12-18T11:15:24;-1.10;71.90
19847;DHT22;10084;50.518;8.588;2022-12-18T11:17:52;-1.30;71.90
19847;DHT22;10084;50.518;8.588;2022-12-18T11:20:49;-1.40;72.20
19847;DHT22;10084;50.518;8.588;2022-12-18T11:23:16;-1.50;72.70
19847;DHT22;10084;50.518;8.588;2022-12-18T11:25:54;-1.50;73.10
19847;DHT22;10084;50.518;8.588;2022-12-18T11:31:24;-1.40;73.40
19847;DHT22;10084;50.518;8.588;2022-12-18T11:36:46;-1.10;73.90
19847;DHT22;10084;50.518;8.588;2022-12-18T11:39:24;-1.00;73.70
19847;DHT22;10084;50.518;8.588;2022-12-18T11:42:01;-1.00;73.30
19847;DHT22;10084;50.518;8.588;2022-12-18T11:50:00;-0.80;73.00
19847;DHT22;10084;50.518;8.588;2022-12-18T11:52:33;-0.90;72.70
19847;DHT22;10084;50.518;8.588;2022-12-18T11:55:10;-0.90;72.50
19847;DHT22;10084;50.518;8.588;2022-12-18T11:57:58;-1.00;72.60
19847;DHT22;10084;50.518;8.588;2022-12-18T12:00:26;-1.00;72.80
19847;DHT22;10084;50.518;8.588;2022-12-18T12:05:51;-1.30;72.20
19847;DHT22;10084;50.518;8.588;2022-12-18T12:08:35;-1.40;72.30
19847;DHT22;10084;50.518;8.588;2022-12-18T12:11:28;-1.60;72.40
19847;DHT22;10084;50.518;8.588;2022-12-18T12:14:02;-1.70;72.40
19847;DHT22;10084;50.518;8.588;2022-12-18T12:21:49;-1.90;72.90
19847;DHT22;10084;50.518;8.588;2022-12-18T12:30:00;-2.00;73.40
19847;DHT22;10084;50.518;8.588;2022-12-18T12:35:51;-2.10;73.30
19847;DHT22;10084;50.518;8.588;2022-12-18T12:38:25;-2.10;73.40
19847;DHT22;10084;50.518;8.588;2022-12-18T12:41:09;-2.10;73.30
19847;DHT22;10084;50.518;8.588;2022-12-18T12:44:01;-2.10;73.40
19847;DHT22;10084;50.518;8.588;2022-12-18T12:46:34;-2.10;73.30
19847;DHT22;10084;50.518;8.588;2022-12-18T12:49:03;-2.10;73.00
19847;DHT22;10084;50.518;8.588;2022-12-18T12:51:40;-2.20;73.00
19847;DHT22;10084;50.518;8.588;2022-12-18T12:54:14;-2.30;72.90
19847;DHT22;10084;50.518;8.588;2022-12-18T12:56:54;-2.50;72.90
19847;DHT22;10084;50.518;8.588;2022-12-18T13:02:41;-2.60;73.40
19847;DHT22;10084;50.518;8.588;2022-12-18T13:05:18;-2.70;73.50
19847;DHT22;10084;50.518;8.588;2022-12-18T13:08:06;-2.70;73.60
19847;DHT22;10084;50.518;8.588;2022-12-18T13:13:05;-2.90;73.50
19847;DHT22;10084;50.518;8.588;2022-12-18T13:20:39;-3.30;73.80
19847;DHT22;10084;50.518;8.588;2022-12-18T13:30:58;-3.70;74.70
19847;DHT22;10084;50.518;8.588;2022-12-18T13:33:35;-3.70;75.00
19847;DHT22;10084;50.518;8.588;2022-12-18T13:38:47;-3.70;75.10
19847;DHT22;10084;50.518;8.588;2022-12-18T13:41:33;-3.70;75.20
19847;DHT22;10084;50.518;8.588;2022-12-18T13:44:25;-3.70;75.40
19847;DHT22;10084;50.518;8.588;2022-12-18T13:46:52;-3.80;75.40
19847;DHT22;10084;50.518;8.588;2022-12-18T13:49:23;-3.80;75.50
19847;DHT22;10084;50.518;8.588;2022-12-18T13:51:52;-3.80;75.60
19847;DHT22;10084;50.518;8.588;2022-12-18T13:54:34;-3.80;75.80
19847;DHT22;10084;50.518;8.588;2022-12-18T13:57:01;-3.90;75.80
19847;DHT22;10084;50.518;8.588;2022-12-18T13:59:38;-3.90;75.90
19847;DHT22;10084;50.518;8.588;2022-12-18T14:02:16;-3.90;76.00
19847;DHT22;10084;50.518;8.588;2022-12-18T14:04:45;-3.90;76.10
19847;DHT22;10084;50.518;8.588;2022-12-18T14:07:25;-3.90;76.20
19847;DHT22;10084;50.518;8.588;2022-12-18T14:09:52;-3.90;76.30
19847;DHT22;10084;50.518;8.588;2022-12-18T14:12:22;-3.90;76.50
19847;DHT22;10084;50.518;8.588;2022-12-18T14:15:34;-3.90;76.60
19847;DHT22;10084;50.518;8.588;2022-12-18T14:18:02;-3.90;76.60
19847;DHT22;10084;50.518;8.588;2022-12-18T14:20:31;-3.90;76.70
19847;DHT22;10084;50.518;8.588;2022-12-18T14:22:58;-3.90;76.70
19847;DHT22;10084;50.518;8.588;2022-12-18T14:25:27;-3.90;76.80
19847;DHT22;10084;50.518;8.588;2022-12-18T14:30:30;-3.90;77.00
19847;DHT22;10084;50.518;8.588;2022-12-18T14:35:26;-3.90;77.00
19847;DHT22;10084;50.518;8.588;2022-12-18T14:37:52;-3.90;77.00
19847;DHT22;10084;50.518;8.588;2022-12-18T14:40:18;-3.90;77.00
19847;DHT22;10084;50.518;8.588;2022-12-18T14:42:43;-3.90;77.10
19847;DHT22;10084;50.518;8.588;2022-12-18T14:45:41;-3.90;77.10
19847;DHT22;10084;50.518;8.588;2022-12-18T14:48:11;-3.90;77.20
19847;DHT22;10084;50.518;8.588;2022-12-18T14:50:39;-3.90;77.30
19847;DHT22;10084;50.518;8.588;2022-12-18T14:53:17;-3.90;77.40
19847;DHT22;10084;50.518;8.588;2022-12-18T14:55:46;-3.90;77.40
19847;DHT22;10084;50.518;8.588;2022-12-18T14:58:15;-3.90;77.50
19847;DHT22;10084;50.518;8.588;2022-12-18T15:00:42;-3.90;77.60
19847;DHT22;10084;50.518;8.588;2022-12-18T15:03:08;-3.90;77.60
19847;DHT22;10084;50.518;8.588;2022-12-18T15:05:35;-3.90;77.70
19847;DHT22;10084;50.518;8.588;2022-12-18T15:08:01;-3.80;77.60
19847;DHT22;10084;50.518;8.588;2022-12-18T15:10:31;-3.80;77.60
19847;DHT22;10084;50.518;8.588;2022-12-18T15:18:05;-3.80;77.60
19847;DHT22;10084;50.518;8.588;2022-12-18T15:20:53;-3.80;77.60
19847;DHT22;10084;50.518;8.588;2022-12-18T15:23:48;-3.80;77.60
19847;DHT22;10084;50.518;8.588;2022-12-18T15:26:16;-3.70;77.60
19847;DHT22;10084;50.518;8.588;2022-12-18T15:28:50;-3.80;77.60
19847;DHT22;10084;50.518;8.588;2022-12-18T15:33:42;-3.80;77.70
19847;DHT22;10084;50.518;8.588;2022-12-18T15:36:12;-3.70;77.80
19847;DHT22;10084;50.518;8.588;2022-12-18T15:38:38;-3.70;77.90
19847;DHT22;10084;50.518;8.588;2022-12-18T15:41:04;-3.70;77.90
19847;DHT22;10084;50.518;8.588;2022-12-18T15:43:32;-3.70;77.80
19847;DHT22;10084;50.518;8.588;2022-12-18T15:46:13;-3.60;77.80
19847;DHT22;10084;50.518;8.588;2022-12-18T15:48:59;-3.60;77.80
19847;DHT22;10084;50.518;8.588;2022-12-18T15:51:38;-3.60;77.80
19847;DHT22;10084;50.518;8.588;2022-12-18T15:54:06;-3.60;77.60
19847;DHT22;10084;50.518;8.588;2022-12-18T15:56:34;-3.60;77.60
19847;DHT22;10084;50.518;8.588;2022-12-18T15:59:20;-3.70;77.60
19847;DHT22;10084;50.518;8.588;2022-12-18T16:01:48;-3.70;77.70
19847;DHT22;10084;50.518;8.588;2022-12-18T16:04:16;-3.70;77.80
19847;DHT22;10084;50.518;8.588;2022-12-18T16:06:42;-3.70;77.80
19847;DHT22;10084;50.518;8.588;2022-12-18T16:09:08;-3.70;77.90
19847;DHT22;10084;50.518;8.588;2022-12-18T16:11:36;-3.80;78.00
19847;DHT22;10084;50.518;8.588;2022-12-18T16:14:17;-3.70;78.00
19847;DHT22;10084;50.518;8.588;2022-12-18T16:16:45;-3.80;78.00
19847;DHT22;10084;50.518;8.588;2022-12-18T16:19:11;-3.80;78.10
19847;DHT22;10084;50.518;8.588;2022-12-18T16:21:39;-3.80;78.10
19847;DHT22;10084;50.518;8.588;2022-12-18T16:24:05;-3.80;78.20
19847;DHT22;10084;50.518;8.588;2022-12-18T16:26:31;-3.70;78.30
19847;DHT22;10084;50.518;8.588;2022-12-18T16:28:57;-3.70;78.30
19847;DHT22;10084;50.518;8.588;2022-12-18T16:31:23;-3.70;78.30
19847;DHT22;10084;50.518;8.588;2022-12-18T16:33:48;-3.70;78.30
19847;DHT22;10084;50.518;8.588;2022-12-18T16:36:14;-3.70;78.30
19847;DHT22;10084;50.518;8.588;2022-12-18T16:38:40;-3.70;78.30
19847;DHT22;10084;50.518;8.588;2022-12-18T16:41:26;-3.70;78.30
19847;DHT22;10084;50.518;8.588;2022-12-18T16:44:02;-3.70;78.30
19847;DHT22;10084;50.518;8.588;2022-12-18T16:46:28;-3.70;78.40
19847;DHT22;10084;50.518;8.588;2022-12-18T16:48:57;-3.70;78.40
19847;DHT22;10084;50.518;8.588;2022-12-18T16:51:23;-3.70;78.40
19847;DHT22;10084;50.518;8.588;2022-12-18T16:53:48;-3.70;78.40
19847;DHT22;10084;50.518;8.588;2022-12-18T16:56:14;-3.60;78.50
19847;DHT22;10084;50.518;8.588;2022-12-18T16:58:40;-3.60;78.60
19847;DHT22;10084;50.518;8.588;2022-12-18T17:01:10;-3.60;78.60
19847;DHT22;10084;50.518;8.588;2022-12-18T17:03:36;-3.60;78.70
19847;DHT22;10084;50.518;8.588;2022-12-18T17:06:03;-3.60;78.70
19847;DHT22;10084;50.518;8.588;2022-12-18T17:08:29;-3.50;78.70
19847;DHT22;10084;50.518;8.588;2022-12-18T17:10:55;-3.50;78.70
19847;DHT22;10084;50.518;8.588;2022-12-18T17:13:25;-3.50;78.70
19847;DHT22;10084;50.518;8.588;2022-12-18T17:15:52;-3.40;78.70
19847;DHT22;10084;50.518;8.588;2022-12-18T17:18:18;-3.40;78.60
19847;DHT22;10084;50.518;8.588;2022-12-18T17:20:44;-3.40;78.70
19847;DHT22;10084;50.518;8.588;2022-12-18T17:23:09;-3.30;78.70
19847;DHT22;10084;50.518;8.588;2022-12-18T17:25:38;-3.30;78.60
19847;DHT22;10084;50.518;8.588;2022-12-18T17:28:04;-3.30;78.60
19847;DHT22;10084;50.518;8.588;2022-12-18T17:30:31;-3.30;78.70
19847;DHT22;10084;50.518;8.588;2022-12-18T17:32:57;-3.30;78.60